createdAt,value
2023-04-04T00:00:39.430Z,66.85
2023-04-04T00:03:07.200Z,66.84
2023-04-04T00:05:36.216Z,66.83
2023-04-04T00:08:04.148Z,66.85
2023-04-04T00:10:31.693Z,66.71
2023-04-04T00:12:59.431Z,66.85
2023-04-04T00:15:29.226Z,66.91
2023-04-04T00:17:57.380Z,66.88
2023-04-04T00:20:26.584Z,66.78
2023-04-04T00:22:54.044Z,66.53
2023-04-04T00:25:24.302Z,66.77
2023-04-04T00:27:52.039Z,66.89
2023-04-04T00:30:19.558Z,66.94
2023-04-04T00:32:47.244Z,67.01
2023-04-04T00:35:17.610Z,67.16
2023-04-04T00:37:45.130Z,67.12
2023-04-04T00:40:12.957Z,67.20
2023-04-04T00:42:41.302Z,67.27
2023-04-04T00:45:09.119Z,67.28
2023-04-04T00:47:38.149Z,67.63
2023-04-04T00:50:07.389Z,67.63
2023-04-04T00:52:37.746Z,67.48
2023-04-04T00:55:05.989Z,67.54
2023-04-04T00:57:34.829Z,67.68
2023-04-04T01:00:07.515Z,67.70
2023-04-04T01:02:36.937Z,67.76
2023-04-04T01:05:04.855Z,67.73
2023-04-04T01:07:33.824Z,67.76
2023-04-04T01:10:04.235Z,67.59
2023-04-04T01:12:32.096Z,67.83
2023-04-04T01:14:59.622Z,67.92
2023-04-04T01:17:28.044Z,67.96
2023-04-04T01:20:03.024Z,67.79
2023-04-04T01:22:39.257Z,67.81
2023-04-04T01:25:08.382Z,67.76
2023-04-04T01:27:39.120Z,67.92
2023-04-04T01:30:14.132Z,67.89
2023-04-04T01:32:41.975Z,67.64
2023-04-04T01:35:21.146Z,68.23
2023-04-04T01:38:24.140Z,67.43
2023-04-04T01:40:57.020Z,67.84
2023-04-04T01:43:25.316Z,67.26
2023-04-04T01:45:53.150Z,67.62
2023-04-04T01:48:20.945Z,67.53
2023-04-04T01:50:52.549Z,67.60
2023-04-04T01:53:21.323Z,67.51
2023-04-04T01:55:49.385Z,67.63
2023-04-04T01:58:18.087Z,67.66
2023-04-04T02:00:46.057Z,67.63
2023-04-04T02:03:13.608Z,67.67
2023-04-04T02:05:41.158Z,67.70
2023-04-04T02:08:10.436Z,67.40
2023-04-04T02:10:46.709Z,67.56
2023-04-04T02:13:14.311Z,67.68
2023-04-04T02:15:42.770Z,67.77
2023-04-04T02:18:10.387Z,67.94
2023-04-04T02:20:38.801Z,67.90
2023-04-04T02:23:06.571Z,68.13
2023-04-04T02:25:34.412Z,68.22
2023-04-04T02:28:01.966Z,68.47
2023-04-04T02:30:29.542Z,68.28
2023-04-04T02:33:00.319Z,68.52
2023-04-04T02:35:28.321Z,68.31
2023-04-04T02:37:56.513Z,68.75
2023-04-04T02:40:28.196Z,68.23
2023-04-04T02:42:56.005Z,68.25
2023-04-04T02:45:23.473Z,68.30
2023-04-04T02:48:00.336Z,68.21
2023-04-04T02:50:39.490Z,68.13
2023-04-04T02:53:08.774Z,68.17
2023-04-04T02:55:37.266Z,67.87
2023-04-04T02:58:04.916Z,67.93
2023-04-04T03:00:32.733Z,68.10
2023-04-04T03:03:00.422Z,68.01
2023-04-04T03:05:32.859Z,67.85
2023-04-04T03:08:00.734Z,67.77
2023-04-04T03:10:32.528Z,67.60
2023-04-04T03:13:00.183Z,67.63
2023-04-04T03:15:30.714Z,67.82
2023-04-04T03:18:00.278Z,67.60
2023-04-04T03:20:31.532Z,67.79
2023-04-04T03:22:59.078Z,67.46
2023-04-04T03:25:27.226Z,67.88
2023-04-04T03:27:55.668Z,67.71
2023-04-04T03:30:27.664Z,67.55
2023-04-04T03:32:56.206Z,67.38
2023-04-04T03:35:23.701Z,67.35
2023-04-04T03:37:51.827Z,67.68
2023-04-04T03:40:21.901Z,67.50
2023-04-04T03:42:49.374Z,67.34
2023-04-04T03:45:20.157Z,67.43
2023-04-04T03:47:47.673Z,67.29
2023-04-04T03:50:15.769Z,67.40
2023-04-04T03:52:49.129Z,67.14
2023-04-04T03:55:16.771Z,67.16
2023-04-04T03:57:44.456Z,67.06
2023-04-04T04:00:15.202Z,66.96
2023-04-04T04:02:44.990Z,67.11
2023-04-04T04:18:44.637Z,66.10
2023-04-04T04:21:17.565Z,65.92
2023-04-04T04:23:45.478Z,65.84
2023-04-04T04:26:12.991Z,65.60
2023-04-04T04:28:41.534Z,65.30
2023-04-04T04:31:14.146Z,64.75
2023-04-04T04:33:46.087Z,64.28
2023-04-04T04:36:13.702Z,63.82
2023-04-04T04:39:02.006Z,63.34
2023-04-04T04:41:33.813Z,62.85
2023-04-04T04:44:02.441Z,62.71
2023-04-04T04:46:30.247Z,62.95
2023-04-04T04:48:59.399Z,62.78
2023-04-04T04:51:30.786Z,62.96
2023-04-04T04:53:59.728Z,62.67
2023-04-04T04:56:29.285Z,62.33
2023-04-04T04:59:07.020Z,61.86
2023-04-04T05:01:34.856Z,61.07
2023-04-04T05:04:02.484Z,60.95
2023-04-04T05:06:40.184Z,60.71
2023-04-04T05:09:10.259Z,60.74
2023-04-04T05:11:39.211Z,60.43
2023-04-04T05:14:09.554Z,60.17
2023-04-04T05:16:46.352Z,59.80
2023-04-04T05:19:15.170Z,59.48
2023-04-04T05:21:48.254Z,59.37
2023-04-04T05:24:27.690Z,58.65
2023-04-04T05:26:55.685Z,58.25
2023-04-04T05:29:23.447Z,57.60
2023-04-04T05:31:50.884Z,57.33
2023-04-04T05:34:21.477Z,56.96
2023-04-04T05:36:53.176Z,56.63
2023-04-04T05:39:20.779Z,56.28
2023-04-04T05:42:00.593Z,55.66
2023-04-04T05:44:31.714Z,55.30
2023-04-04T05:46:59.236Z,54.87
2023-04-04T05:49:28.496Z,54.95
2023-04-04T05:51:59.191Z,55.00
2023-04-04T05:54:27.535Z,55.25
2023-04-04T05:56:56.617Z,55.11
2023-04-04T05:59:41.372Z,55.24
2023-04-04T06:02:11.140Z,55.41
2023-04-04T06:04:42.166Z,55.13
2023-04-04T06:07:11.809Z,54.98
2023-04-04T06:09:40.058Z,54.79
2023-04-04T06:12:09.300Z,54.48
2023-04-04T06:14:37.611Z,54.51
2023-04-04T06:17:07.059Z,54.53
2023-04-04T06:19:35.820Z,54.59
2023-04-04T06:22:03.413Z,54.78
2023-04-04T06:24:35.545Z,54.73
2023-04-04T06:27:04.781Z,54.46
2023-04-04T06:29:33.461Z,54.04
2023-04-04T06:32:02.637Z,53.36
2023-04-04T06:34:37.204Z,51.74
2023-04-04T06:37:05.272Z,50.14
2023-04-04T06:39:39.153Z,48.37
2023-04-04T06:42:12.788Z,46.66
2023-04-04T06:44:47.333Z,45.20
2023-04-04T06:47:15.114Z,43.93
2023-04-04T06:49:42.576Z,42.80
2023-04-04T06:52:11.692Z,42.13
2023-04-04T06:54:39.458Z,42.70
2023-04-04T06:57:06.986Z,43.46
2023-04-04T06:59:34.423Z,44.23
2023-04-04T07:02:04.102Z,45.06
2023-04-04T07:04:34.889Z,45.35
2023-04-04T07:07:02.857Z,45.87
2023-04-04T07:09:30.684Z,46.45
2023-04-04T07:11:58.295Z,46.42
2023-04-04T07:14:26.063Z,46.31
2023-04-04T07:16:55.292Z,46.08
2023-04-04T07:19:28.593Z,46.21
2023-04-04T07:21:57.024Z,45.93
2023-04-04T07:24:24.560Z,45.86
2023-04-04T07:26:52.164Z,45.63
2023-04-04T07:29:21.612Z,45.76
2023-04-04T07:31:49.194Z,45.68
2023-04-04T07:34:17.206Z,45.16
2023-04-04T07:36:44.644Z,44.99
2023-04-04T07:39:12.267Z,44.54
2023-04-04T07:41:40.015Z,44.15
2023-04-04T07:44:07.665Z,43.74
2023-04-04T07:46:35.121Z,42.95
2023-04-04T07:49:02.698Z,42.42
2023-04-04T07:51:31.097Z,40.78
2023-04-04T07:53:58.640Z,39.37
2023-04-04T07:56:26.272Z,38.05
2023-04-04T07:58:53.796Z,36.59
2023-04-04T08:01:21.527Z,35.41
2023-04-04T08:03:50.365Z,33.84
2023-04-04T08:06:18.125Z,33.09
2023-04-04T08:08:47.259Z,31.79
2023-04-04T08:11:14.891Z,30.16
2023-04-04T08:13:42.785Z,29.69
2023-04-04T08:16:10.373Z,29.37
2023-04-04T08:18:38.801Z,29.04
2023-04-04T08:21:06.338Z,28.28
2023-04-04T08:23:33.770Z,26.83
2023-04-04T08:26:01.270Z,26.29
2023-04-04T08:28:29.001Z,25.14
2023-04-04T08:30:56.957Z,24.83
2023-04-04T08:33:31.383Z,24.21
2023-04-04T08:36:05.192Z,23.41
2023-04-04T08:38:32.860Z,22.79
2023-04-04T08:41:00.913Z,22.69
2023-04-04T08:43:29.266Z,22.80
2023-04-04T08:45:57.990Z,24.02
2023-04-04T08:48:29.974Z,24.53
2023-04-04T08:50:59.873Z,25.24
2023-04-04T08:53:29.647Z,26.02
2023-04-04T08:56:00.171Z,26.96
2023-04-04T08:58:27.924Z,27.39
2023-04-04T09:00:56.587Z,27.40
2023-04-04T09:03:29.484Z,28.24
2023-04-04T09:05:57.894Z,28.50
2023-04-04T09:08:28.461Z,28.93
2023-04-04T09:10:56.874Z,29.15
2023-04-04T09:13:24.494Z,29.70
2023-04-04T09:15:54.906Z,29.65
2023-04-04T09:18:22.579Z,29.81
2023-04-04T09:20:50.597Z,30.44
2023-04-04T09:23:24.023Z,30.24
2023-04-04T09:26:03.117Z,30.03
2023-04-04T09:28:33.350Z,30.01
2023-04-04T09:31:05.822Z,29.61
2023-04-04T09:33:34.794Z,30.12
2023-04-04T09:36:07.300Z,30.23
2023-04-04T09:38:39.178Z,30.10
2023-04-04T09:41:09.948Z,30.73
2023-04-04T09:43:39.875Z,31.08
2023-04-04T09:46:08.205Z,32.24
2023-04-04T09:48:37.288Z,32.75
2023-04-04T09:51:06.521Z,32.57
2023-04-04T09:53:39.980Z,32.62
2023-04-04T09:56:08.450Z,31.56
2023-04-04T09:58:46.363Z,30.42
2023-04-04T10:01:20.920Z,30.38
2023-04-04T10:03:53.870Z,30.35
2023-04-04T10:06:22.548Z,30.87
2023-04-04T10:08:50.541Z,30.43
2023-04-04T10:11:33.641Z,29.15
2023-04-04T10:14:03.954Z,26.99
2023-04-04T10:16:38.343Z,23.67
2023-04-04T10:19:08.066Z,21.63
2023-04-04T10:21:38.724Z,20.44
2023-04-04T10:24:10.126Z,19.55
2023-04-04T10:26:38.044Z,19.04
2023-04-04T10:29:06.122Z,20.36
2023-04-04T10:31:41.527Z,20.78
2023-04-04T10:34:28.720Z,22.64
2023-04-04T10:37:10.108Z,23.10
2023-04-04T10:39:52.251Z,24.08
2023-04-04T10:42:19.985Z,24.86
2023-04-04T10:44:47.741Z,25.75
2023-04-04T10:47:19.750Z,26.79
2023-04-04T10:49:48.574Z,27.44
2023-04-04T10:52:18.996Z,27.78
2023-04-04T10:54:48.435Z,28.57
2023-04-04T10:57:16.507Z,28.61
2023-04-04T11:00:00.281Z,29.30
2023-04-04T11:02:53.567Z,29.07
2023-04-04T11:05:30.656Z,29.35
2023-04-04T11:08:08.583Z,30.06
2023-04-04T11:10:39.365Z,29.82
2023-04-04T11:13:29.295Z,30.59
2023-04-04T11:16:01.035Z,31.04
2023-04-04T11:18:41.689Z,31.39
2023-04-04T11:21:13.963Z,32.02
2023-04-04T11:23:47.596Z,33.03
2023-04-04T11:26:30.121Z,33.62
2023-04-04T11:28:59.499Z,33.56
2023-04-04T11:31:28.374Z,33.47
2023-04-04T11:34:04.292Z,33.82
2023-04-04T11:36:37.975Z,34.95
2023-04-04T11:39:19.900Z,34.51
2023-04-04T11:41:58.892Z,34.90
2023-04-04T11:44:30.746Z,34.78
2023-04-04T11:47:09.524Z,35.29
2023-04-04T11:49:42.826Z,35.56
2023-04-04T11:52:16.039Z,35.87
2023-04-04T11:54:45.606Z,35.63
2023-04-04T11:57:18.100Z,35.84
2023-04-04T11:59:47.638Z,35.76
2023-04-04T12:02:32.305Z,36.42
2023-04-04T12:05:00.713Z,35.62
2023-04-04T12:07:34.408Z,36.11
2023-04-04T12:10:03.161Z,36.19
2023-04-04T12:12:31.186Z,36.40
2023-04-04T12:15:06.622Z,36.21
2023-04-04T12:17:44.200Z,36.41
2023-04-04T12:20:11.980Z,36.20
2023-04-04T12:22:40.539Z,36.54
2023-04-04T12:25:08.757Z,36.45
2023-04-04T12:27:37.042Z,36.65
2023-04-04T12:30:08.026Z,36.55
2023-04-04T12:32:35.760Z,36.01
2023-04-04T12:35:04.247Z,34.91
2023-04-04T12:37:33.304Z,34.81
2023-04-04T12:40:02.514Z,34.83
2023-04-04T12:42:32.059Z,34.81
2023-04-04T12:45:02.379Z,34.52
2023-04-04T12:47:31.463Z,34.74
2023-04-04T12:49:59.004Z,35.08
2023-04-04T12:52:32.517Z,34.52
2023-04-04T12:55:09.493Z,34.49
2023-04-04T12:57:40.194Z,34.24
2023-04-04T13:00:09.487Z,34.32
2023-04-04T13:02:46.066Z,34.37
2023-04-04T13:05:14.394Z,34.32
2023-04-04T13:07:45.119Z,34.85
2023-04-04T13:10:16.555Z,35.19
2023-04-04T13:12:59.017Z,34.83
2023-04-04T13:15:49.608Z,35.49
2023-04-04T13:18:22.040Z,35.47
2023-04-04T13:20:50.904Z,35.86
2023-04-04T13:23:18.936Z,35.86
2023-04-04T13:25:47.925Z,36.09
2023-04-04T13:28:15.824Z,36.07
2023-04-04T13:30:49.623Z,36.51
2023-04-04T13:33:18.645Z,36.28
2023-04-04T13:35:46.729Z,36.51
2023-04-04T13:38:14.357Z,36.84
2023-04-04T13:40:41.922Z,36.94
2023-04-04T13:43:11.639Z,37.02
2023-04-04T13:45:39.473Z,37.14
2023-04-04T13:48:07.266Z,37.25
2023-04-04T13:50:37.559Z,37.48
2023-04-04T13:53:05.326Z,37.51
2023-04-04T13:55:32.842Z,37.77
2023-04-04T13:58:00.450Z,38.01
2023-04-04T14:00:28.543Z,37.91
2023-04-04T14:02:57.813Z,38.40
2023-04-04T14:05:25.711Z,38.58
2023-04-04T14:07:53.139Z,38.61
2023-04-04T14:10:21.015Z,38.73
2023-04-04T14:12:48.466Z,39.01
2023-04-04T14:15:16.097Z,38.60
2023-04-04T14:17:43.729Z,38.83
2023-04-04T14:20:11.858Z,39.30
2023-04-04T14:22:39.592Z,38.99
2023-04-04T14:25:07.489Z,38.81
2023-04-04T14:27:35.023Z,39.00
2023-04-04T14:30:10.219Z,38.92
2023-04-04T14:32:37.893Z,39.45
2023-04-04T14:35:06.285Z,39.44
2023-04-04T14:37:33.911Z,39.42
2023-04-04T14:40:01.431Z,39.97
2023-04-04T14:42:31.060Z,40.48
2023-04-04T14:44:58.826Z,41.07
2023-04-04T14:47:26.371Z,41.50
2023-04-04T14:49:54.995Z,41.66
2023-04-04T14:52:23.591Z,42.08
2023-04-04T14:54:51.116Z,42.47
2023-04-04T14:57:18.640Z,42.74
2023-04-04T14:59:46.087Z,43.24
2023-04-04T15:02:13.665Z,43.73
2023-04-04T15:04:42.704Z,44.13
2023-04-04T15:07:10.350Z,44.43
2023-04-04T15:09:37.762Z,44.79
2023-04-04T15:12:05.542Z,45.00
2023-04-04T15:14:33.121Z,45.24
2023-04-04T15:17:00.851Z,45.69
2023-04-04T15:19:28.656Z,45.82
2023-04-04T15:21:57.239Z,46.30
2023-04-04T15:24:24.849Z,46.39
2023-04-04T15:26:52.422Z,46.68
2023-04-04T15:29:19.890Z,46.72
2023-04-04T15:31:47.814Z,47.09
2023-04-04T15:34:15.503Z,47.33
2023-04-04T15:36:44.384Z,47.73
2023-04-04T15:39:12.102Z,47.64
2023-04-04T15:41:39.569Z,47.76
2023-04-04T15:44:09.546Z,47.98
2023-04-04T15:46:39.363Z,48.13
2023-04-04T15:49:07.273Z,48.46
2023-04-04T15:51:34.886Z,48.54
2023-04-04T15:54:02.624Z,48.64
2023-04-04T15:56:30.633Z,48.92
2023-04-04T15:58:58.359Z,48.97
2023-04-04T16:01:27.042Z,49.08
2023-04-04T16:03:54.754Z,49.33
2023-04-04T16:06:22.228Z,49.26
2023-04-04T16:08:49.776Z,49.50
2023-04-04T16:11:19.295Z,49.88
2023-04-04T16:13:47.217Z,49.74
2023-04-04T16:16:14.941Z,49.85
2023-04-04T16:18:42.560Z,49.92
2023-04-04T16:21:10.229Z,49.76
2023-04-04T16:23:39.202Z,49.85
2023-04-04T16:26:06.822Z,50.17
2023-04-04T16:28:34.349Z,50.35
2023-04-04T16:31:02.511Z,50.06
2023-04-04T16:33:30.480Z,50.00
2023-04-04T16:35:58.042Z,49.94
2023-04-04T16:38:25.491Z,49.83
2023-04-04T16:40:52.971Z,49.80
2023-04-04T16:43:23.889Z,50.03
2023-04-04T16:45:52.766Z,49.69
2023-04-04T16:48:20.323Z,49.93
2023-04-04T16:50:48.224Z,49.88
2023-04-04T16:53:15.906Z,49.92
2023-04-04T16:55:43.628Z,50.13
2023-04-04T16:58:11.358Z,50.08
2023-04-04T17:00:39.450Z,50.25
2023-04-04T17:03:07.191Z,50.45
2023-04-04T17:05:34.737Z,50.21
2023-04-04T17:08:02.280Z,50.22
2023-04-04T17:10:29.870Z,50.37
2023-04-04T17:12:58.318Z,50.32
2023-04-04T17:15:26.318Z,50.73
2023-04-04T17:17:53.850Z,50.77
2023-04-04T17:20:21.975Z,50.50
2023-04-04T17:22:51.760Z,50.60
2023-04-04T17:25:21.092Z,50.80
2023-04-04T17:27:48.693Z,51.14
2023-04-04T17:30:16.843Z,50.92
2023-04-04T17:32:47.220Z,50.91
2023-04-04T17:35:15.895Z,51.32
2023-04-04T17:37:43.395Z,51.61
2023-04-04T17:40:11.688Z,51.39
2023-04-04T17:42:39.749Z,51.60
2023-04-04T17:45:08.773Z,52.12
2023-04-04T17:47:36.374Z,51.95
2023-04-04T17:50:05.136Z,52.27
2023-04-04T17:52:33.466Z,52.11
2023-04-04T17:55:01.688Z,52.01
2023-04-04T17:57:30.779Z,51.98
2023-04-04T17:59:58.533Z,52.12
2023-04-04T18:02:26.279Z,51.96
2023-04-04T18:04:54.105Z,51.56
2023-04-04T18:07:22.037Z,51.85
2023-04-04T18:09:49.547Z,51.87
2023-04-04T18:12:18.549Z,51.87
2023-04-04T18:14:46.207Z,52.14
2023-04-04T18:17:13.976Z,52.26
2023-04-04T18:19:42.644Z,52.47
2023-04-04T18:22:10.135Z,52.42
2023-04-04T18:24:37.828Z,52.58
2023-04-04T18:27:05.248Z,52.83
2023-04-04T18:29:32.871Z,52.96
2023-04-04T18:32:04.141Z,53.33
2023-04-04T18:34:31.773Z,53.56
2023-04-04T18:36:59.311Z,54.04
2023-04-04T18:39:27.703Z,54.10
2023-04-04T18:41:55.462Z,54.19
2023-04-04T18:44:23.058Z,54.75
2023-04-04T18:46:51.047Z,55.03
2023-04-04T18:49:30.291Z,55.99
2023-04-04T18:52:18.463Z,56.23
2023-04-04T18:54:46.307Z,56.05
2023-04-04T18:57:14.769Z,56.42
2023-04-04T18:59:42.428Z,56.64
2023-04-04T19:02:09.920Z,57.12
2023-04-04T19:04:39.719Z,57.54
2023-04-04T19:07:24.754Z,57.60
2023-04-04T19:09:52.973Z,57.81
2023-04-04T19:12:20.482Z,58.07
2023-04-04T19:14:48.222Z,58.31
2023-04-04T19:17:18.147Z,58.64
2023-04-04T19:19:45.858Z,58.43
2023-04-04T19:22:13.349Z,58.90
2023-04-04T19:24:42.401Z,58.97
2023-04-04T19:27:10.231Z,59.29
2023-04-04T19:29:37.890Z,59.53
2023-04-04T19:32:16.215Z,60.59
2023-04-04T19:34:44.350Z,59.88
2023-04-04T19:37:13.763Z,59.96
2023-04-04T19:39:44.976Z,59.84
2023-04-04T19:42:12.575Z,59.80
2023-04-04T19:44:41.227Z,59.62
2023-04-04T19:47:17.993Z,59.69
2023-04-04T19:49:45.616Z,59.19
2023-04-04T19:52:14.398Z,58.98
2023-04-04T19:54:43.045Z,58.74
2023-04-04T19:57:20.869Z,58.70
2023-04-04T20:00:01.928Z,58.79
2023-04-04T20:02:39.181Z,58.21
2023-04-04T20:05:32.456Z,58.26
2023-04-04T20:08:01.389Z,57.70
2023-04-04T20:14:23.605Z,58.13
2023-04-04T20:21:37.441Z,57.99
2023-04-04T20:24:26.318Z,57.79
2023-04-04T20:27:39.700Z,58.10
2023-04-04T20:30:50.786Z,58.33
2023-04-04T20:38:44.960Z,58.40
2023-04-04T20:41:19.651Z,58.34
2023-04-04T20:43:51.782Z,57.99
2023-04-04T20:46:21.065Z,58.08
2023-04-04T20:48:50.662Z,58.28
2023-04-04T20:51:24.620Z,58.93
2023-04-04T20:53:53.631Z,58.29
2023-04-04T20:56:39.918Z,59.03
2023-04-04T20:59:27.724Z,58.54
2023-04-04T21:01:56.264Z,58.36
2023-04-04T21:04:25.564Z,58.42
2023-04-04T21:06:53.769Z,58.53
2023-04-04T21:09:21.569Z,58.57
2023-04-04T21:11:49.120Z,58.65
2023-04-04T21:14:24.093Z,59.58
2023-04-04T21:16:51.950Z,58.85
2023-04-04T21:19:21.758Z,58.73
2023-04-04T21:21:51.063Z,58.79
2023-04-04T21:24:19.300Z,59.12
2023-04-04T21:26:47.197Z,59.25
2023-04-04T21:29:25.242Z,59.62
2023-04-04T21:31:55.208Z,59.48
2023-04-04T21:34:27.473Z,59.97
2023-04-04T21:37:01.860Z,60.24
2023-04-04T21:39:30.598Z,59.64
2023-04-04T21:42:08.491Z,59.97
2023-04-04T21:44:36.714Z,59.73
2023-04-04T21:47:04.213Z,59.91
2023-04-04T21:49:31.673Z,60.02
2023-04-04T21:51:59.266Z,60.20
2023-04-04T21:54:26.672Z,60.27
2023-04-04T21:56:54.356Z,60.33
2023-04-04T21:59:21.851Z,60.36
2023-04-04T22:01:50.732Z,60.67
2023-04-04T22:04:18.563Z,60.80
2023-04-04T22:06:46.420Z,60.87
2023-04-04T22:09:15.495Z,61.18
2023-04-04T22:11:44.589Z,61.03
2023-04-04T22:14:18.215Z,61.42
2023-04-04T22:16:46.140Z,61.53
2023-04-04T22:19:18.791Z,61.76
2023-04-04T22:21:47.267Z,61.80
2023-04-04T22:24:15.949Z,62.12
2023-04-04T22:26:45.821Z,62.20
2023-04-04T22:29:13.694Z,62.57
2023-04-04T22:31:41.520Z,62.76
2023-04-04T22:34:09.628Z,62.77
2023-04-04T22:36:38.766Z,63.03
2023-04-04T22:39:08.709Z,63.42
2023-04-04T22:41:36.192Z,63.21
2023-04-04T22:44:04.870Z,63.59
2023-04-04T22:46:32.430Z,63.65
2023-04-04T22:49:07.107Z,63.79
2023-04-04T22:51:44.184Z,64.13
2023-04-04T22:54:14.674Z,64.01
2023-04-04T22:56:42.467Z,64.10
2023-04-04T22:59:10.214Z,64.34
2023-04-04T23:01:38.099Z,64.54
2023-04-04T23:04:06.218Z,64.46
2023-04-04T23:06:33.724Z,64.65
2023-04-04T23:09:02.033Z,64.84
2023-04-04T23:11:30.665Z,64.98
2023-04-04T23:13:58.200Z,65.01
2023-04-04T23:16:26.506Z,65.20
2023-04-04T23:18:54.425Z,65.30
2023-04-04T23:21:22.173Z,65.33
2023-04-04T23:23:49.864Z,65.47
2023-04-04T23:26:17.277Z,65.45
2023-04-04T23:28:44.770Z,65.62
2023-04-04T23:31:12.256Z,65.71
2023-04-04T23:33:39.916Z,65.89
2023-04-04T23:36:07.990Z,65.98
2023-04-04T23:38:35.967Z,66.05
2023-04-04T23:41:03.619Z,66.20
2023-04-04T23:43:31.389Z,66.15
2023-04-04T23:46:00.500Z,66.27
2023-04-04T23:48:28.729Z,66.39
2023-04-04T23:50:56.853Z,66.31
2023-04-04T23:53:24.470Z,66.34
2023-04-04T23:55:52.013Z,66.27
2023-04-04T23:58:19.762Z,66.21
